Airfield :
LOGIN :

Register | Disclaimer

   EN    FR    IT 

 










Legend :    VFR   Marginal VFR   IFR   Intensive IFR   Very Intensive IFR
Visi :
Ceiling :
>= 8 km
>= 3000ft
5 to 8 km
1000 to 3000 ft
1500m to 5 km
500 to 1000 ft
800 to 1500m
200 to 500 ft
< 800m
< 200 ft
Symbols :   Thunderstorms  Fog  Heavy snow  Heavy precipitations  Wind > 20 kt
SIGMETs :     Misc.  Thunderstorms  Icing  Turbulence  Mountain Waves  Volcanic Ashes






- Airport Elevation : 327 ft
- IATA code : BHX


EGBB - Birmingham

CURRENT METAR :
  • 190820Z 32004KT 9999 -RA FEW018 BKN023 15/13 Q1014

EXPIRED METARs :
  • 190750Z VRB03KT 9999 VCSH BKN024 14/13 Q1014
  • 190720Z VRB01KT 9999 BKN024 14/12 Q1014
  • 190650Z 30002KT 9999 BKN021 14/12 Q1014
  • 190620Z 32004KT 9999 BKN022 14/12 Q1013
  • 190550Z 31006KT 9999 BKN017 14/12 Q1013

TAF TAF EGBB
Valid from the 19 at 06:00 until the 20 at 06:00 UTC


190456Z 1906/2006 22005KT 9999 SCT030
TEMPO 1906/1908 6000 -RADZ BKN010
PROB30
TEMPO 1906/1908 4000 RA BR BKN004
PROB30
TEMPO 1912/1918 7000 SHRA
BECMG 1915/1918 34010KT
ATIS : +44 121 780 0910



MET'MAP, your aeronautical weather chart ! - Copyright ORBIFLY December 2007 - Disclaimer

ORBIFLY MET'MAP TEAM :

Programming & Development : Alexandra Zaïnal
Concept & original design : Baudouin d'Aumeries
Assistance for programming : Marc-Olivier Méhu
Technical & hardware support : Manuel Goepfert

Contact : metmap@orbifly.com




SOURCES & CREDITS :

   NOAA